sensor_id;sensor_type;location;lat;lon;timestamp;temperature;humidity
13346;DHT22;6742;48.036;15.780;2022-07-17T00:02:10;18.10;99.90
13346;DHT22;6742;48.036;15.780;2022-07-17T00:04:37;18.10;99.90
13346;DHT22;6742;48.036;15.780;2022-07-17T00:07:05;18.10;99.90
13346;DHT22;6742;48.036;15.780;2022-07-17T00:09:35;18.00;99.90
13346;DHT22;6742;48.036;15.780;2022-07-17T00:12:02;18.00;99.90
13346;DHT22;6742;48.036;15.780;2022-07-17T00:14:29;18.00;99.90
13346;DHT22;6742;48.036;15.780;2022-07-17T00:16:56;18.00;99.90
13346;DHT22;6742;48.036;15.780;2022-07-17T00:19:23;18.00;99.90
13346;DHT22;6742;48.036;15.780;2022-07-17T00:21:50;17.90;99.90
13346;DHT22;6742;48.036;15.780;2022-07-17T00:24:19;17.90;99.90
13346;DHT22;6742;48.036;15.780;2022-07-17T00:26:46;17.90;99.90
13346;DHT22;6742;48.036;15.780;2022-07-17T00:29:14;17.80;99.90
13346;DHT22;6742;48.036;15.780;2022-07-17T00:31:41;17.80;99.90
13346;DHT22;6742;48.036;15.780;2022-07-17T00:34:08;17.80;99.90
13346;DHT22;6742;48.036;15.780;2022-07-17T00:36:35;17.80;99.90
13346;DHT22;6742;48.036;15.780;2022-07-17T00:39:02;17.80;99.90
13346;DHT22;6742;48.036;15.780;2022-07-17T00:41:31;17.70;99.90
13346;DHT22;6742;48.036;15.780;2022-07-17T00:44:04;17.70;99.90
13346;DHT22;6742;48.036;15.780;2022-07-17T00:46:31;17.70;99.90
13346;DHT22;6742;48.036;15.780;2022-07-17T00:48:58;17.70;99.90
13346;DHT22;6742;48.036;15.780;2022-07-17T00:51:25;17.70;99.90
13346;DHT22;6742;48.036;15.780;2022-07-17T00:53:52;17.60;99.90
13346;DHT22;6742;48.036;15.780;2022-07-17T00:56:21;17.60;99.90
13346;DHT22;6742;48.036;15.780;2022-07-17T00:58:50;17.60;99.90
13346;DHT22;6742;48.036;15.780;2022-07-17T01:01:21;17.50;99.90
13346;DHT22;6742;48.036;15.780;2022-07-17T01:03:48;17.50;99.90
13346;DHT22;6742;48.036;15.780;2022-07-17T01:06:18;17.40;99.90
13346;DHT22;6742;48.036;15.780;2022-07-17T01:08:48;17.40;99.90
13346;DHT22;6742;48.036;15.780;2022-07-17T01:11:15;17.30;99.90
13346;DHT22;6742;48.036;15.780;2022-07-17T01:13:42;17.20;99.90
13346;DHT22;6742;48.036;15.780;2022-07-17T01:16:11;17.20;99.90
13346;DHT22;6742;48.036;15.780;2022-07-17T01:18:37;17.20;99.90
13346;DHT22;6742;48.036;15.780;2022-07-17T01:21:06;17.20;99.90
13346;DHT22;6742;48.036;15.780;2022-07-17T01:23:34;17.20;99.90
13346;DHT22;6742;48.036;15.780;2022-07-17T01:26:00;17.20;99.90
13346;DHT22;6742;48.036;15.780;2022-07-17T01:28:27;17.20;99.90
13346;DHT22;6742;48.036;15.780;2022-07-17T01:30:56;17.20;99.90
13346;DHT22;6742;48.036;15.780;2022-07-17T01:33:23;17.20;99.90
13346;DHT22;6742;48.036;15.780;2022-07-17T01:35:50;17.20;99.90
13346;DHT22;6742;48.036;15.780;2022-07-17T01:38:18;17.10;99.90
13346;DHT22;6742;48.036;15.780;2022-07-17T01:40:45;17.00;99.90
13346;DHT22;6742;48.036;15.780;2022-07-17T01:43:12;17.00;99.90
13346;DHT22;6742;48.036;15.780;2022-07-17T01:45:39;16.90;99.90
13346;DHT22;6742;48.036;15.780;2022-07-17T01:48:06;16.90;99.90
13346;DHT22;6742;48.036;15.780;2022-07-17T01:50:36;16.80;99.90
13346;DHT22;6742;48.036;15.780;2022-07-17T01:53:03;16.80;99.90
13346;DHT22;6742;48.036;15.780;2022-07-17T01:55:31;16.70;99.90
13346;DHT22;6742;48.036;15.780;2022-07-17T01:57:58;16.70;99.90
13346;DHT22;6742;48.036;15.780;2022-07-17T02:00:25;16.70;99.90
13346;DHT22;6742;48.036;15.780;2022-07-17T02:02:52;16.70;99.90
13346;DHT22;6742;48.036;15.780;2022-07-17T02:05:19;16.70;99.90
13346;DHT22;6742;48.036;15.780;2022-07-17T02:07:46;16.60;99.90
13346;DHT22;6742;48.036;15.780;2022-07-17T02:10:16;16.60;99.90
13346;DHT22;6742;48.036;15.780;2022-07-17T02:12:44;16.50;99.90
13346;DHT22;6742;48.036;15.780;2022-07-17T02:15:12;16.50;99.90
13346;DHT22;6742;48.036;15.780;2022-07-17T02:17:40;16.50;99.90
13346;DHT22;6742;48.036;15.780;2022-07-17T02:20:08;16.50;99.90
13346;DHT22;6742;48.036;15.780;2022-07-17T02:22:36;16.50;99.90
13346;DHT22;6742;48.036;15.780;2022-07-17T02:25:04;16.50;99.90
13346;DHT22;6742;48.036;15.780;2022-07-17T02:27:31;16.40;99.90
13346;DHT22;6742;48.036;15.780;2022-07-17T02:30:01;16.40;99.90
13346;DHT22;6742;48.036;15.780;2022-07-17T02:32:28;16.40;99.90
13346;DHT22;6742;48.036;15.780;2022-07-17T02:34:55;16.40;99.90
13346;DHT22;6742;48.036;15.780;2022-07-17T02:37:22;16.40;99.90
13346;DHT22;6742;48.036;15.780;2022-07-17T02:39:49;16.30;99.90
13346;DHT22;6742;48.036;15.780;2022-07-17T02:42:20;16.20;99.90
13346;DHT22;6742;48.036;15.780;2022-07-17T02:44:47;16.20;99.90
13346;DHT22;6742;48.036;15.780;2022-07-17T02:47:20;16.20;99.90
13346;DHT22;6742;48.036;15.780;2022-07-17T02:49:48;16.10;99.90
13346;DHT22;6742;48.036;15.780;2022-07-17T02:52:15;16.10;99.90
13346;DHT22;6742;48.036;15.780;2022-07-17T02:54:42;16.10;99.90
13346;DHT22;6742;48.036;15.780;2022-07-17T02:57:10;16.00;99.90
13346;DHT22;6742;48.036;15.780;2022-07-17T02:59:42;16.00;99.90
13346;DHT22;6742;48.036;15.780;2022-07-17T03:02:09;15.90;99.90
13346;DHT22;6742;48.036;15.780;2022-07-17T03:09:47;15.90;99.90
13346;DHT22;6742;48.036;15.780;2022-07-17T03:12:14;15.80;99.90
13346;DHT22;6742;48.036;15.780;2022-07-17T03:14:41;15.80;99.90
13346;DHT22;6742;48.036;15.780;2022-07-17T03:17:08;15.70;99.90
13346;DHT22;6742;48.036;15.780;2022-07-17T03:19:35;15.70;99.90
13346;DHT22;6742;48.036;15.780;2022-07-17T03:22:02;15.60;99.90
13346;DHT22;6742;48.036;15.780;2022-07-17T03:24:29;15.60;99.90
13346;DHT22;6742;48.036;15.780;2022-07-17T03:26:57;15.50;99.90
13346;DHT22;6742;48.036;15.780;2022-07-17T03:29:24;15.50;99.90
13346;DHT22;6742;48.036;15.780;2022-07-17T03:31:51;15.40;99.90
13346;DHT22;6742;48.036;15.780;2022-07-17T03:34:18;15.50;99.90
13346;DHT22;6742;48.036;15.780;2022-07-17T03:36:45;15.50;99.90
13346;DHT22;6742;48.036;15.780;2022-07-17T03:39:13;15.60;99.90
13346;DHT22;6742;48.036;15.780;2022-07-17T03:41:40;15.60;99.90
13346;DHT22;6742;48.036;15.780;2022-07-17T03:44:09;15.60;99.90
13346;DHT22;6742;48.036;15.780;2022-07-17T03:46:36;15.60;99.90
13346;DHT22;6742;48.036;15.780;2022-07-17T03:49:03;15.50;99.90
13346;DHT22;6742;48.036;15.780;2022-07-17T03:51:30;15.50;99.90
13346;DHT22;6742;48.036;15.780;2022-07-17T03:53:57;15.50;99.90
13346;DHT22;6742;48.036;15.780;2022-07-17T03:56:23;15.40;99.90
13346;DHT22;6742;48.036;15.780;2022-07-17T03:58:50;15.40;99.90
13346;DHT22;6742;48.036;15.780;2022-07-17T04:01:19;15.40;99.90
13346;DHT22;6742;48.036;15.780;2022-07-17T04:03:46;15.40;99.90
13346;DHT22;6742;48.036;15.780;2022-07-17T04:06:13;15.30;99.90
13346;DHT22;6742;48.036;15.780;2022-07-17T04:08:39;15.30;99.90
13346;DHT22;6742;48.036;15.780;2022-07-17T04:11:07;15.20;99.90
13346;DHT22;6742;48.036;15.780;2022-07-17T04:13:34;15.20;99.90
13346;DHT22;6742;48.036;15.780;2022-07-17T04:16:00;15.20;99.90
13346;DHT22;6742;48.036;15.780;2022-07-17T04:18:31;15.20;99.90
13346;DHT22;6742;48.036;15.780;2022-07-17T04:21:00;15.30;99.90
13346;DHT22;6742;48.036;15.780;2022-07-17T04:23:28;15.30;99.90
13346;DHT22;6742;48.036;15.780;2022-07-17T04:25:55;15.30;99.90
13346;DHT22;6742;48.036;15.780;2022-07-17T04:28:22;15.20;99.90
13346;DHT22;6742;48.036;15.780;2022-07-17T04:30:49;15.20;99.90
13346;DHT22;6742;48.036;15.780;2022-07-17T04:33:16;15.20;99.90
13346;DHT22;6742;48.036;15.780;2022-07-17T04:35:45;15.20;99.90
13346;DHT22;6742;48.036;15.780;2022-07-17T04:38:12;15.30;99.90
13346;DHT22;6742;48.036;15.780;2022-07-17T04:40:39;15.30;99.90
13346;DHT22;6742;48.036;15.780;2022-07-17T04:43:06;15.30;99.90
13346;DHT22;6742;48.036;15.780;2022-07-17T04:45:34;15.20;99.90
13346;DHT22;6742;48.036;15.780;2022-07-17T04:48:01;15.20;99.90
13346;DHT22;6742;48.036;15.780;2022-07-17T04:50:28;15.20;99.90
13346;DHT22;6742;48.036;15.780;2022-07-17T04:52:57;15.30;99.90
13346;DHT22;6742;48.036;15.780;2022-07-17T04:55:24;15.30;99.90
13346;DHT22;6742;48.036;15.780;2022-07-17T04:57:51;15.50;99.90
13346;DHT22;6742;48.036;15.780;2022-07-17T05:00:18;15.50;99.90
13346;DHT22;6742;48.036;15.780;2022-07-17T05:02:45;15.60;99.90
13346;DHT22;6742;48.036;15.780;2022-07-17T05:05:12;15.60;99.90
13346;DHT22;6742;48.036;15.780;2022-07-17T05:07:39;15.60;99.90
13346;DHT22;6742;48.036;15.780;2022-07-17T05:10:08;15.80;99.90
13346;DHT22;6742;48.036;15.780;2022-07-17T05:12:36;16.20;99.90
13346;DHT22;6742;48.036;15.780;2022-07-17T05:15:04;16.70;99.90
13346;DHT22;6742;48.036;15.780;2022-07-17T05:17:31;17.10;99.90
13346;DHT22;6742;48.036;15.780;2022-07-17T05:19:58;17.50;99.90
13346;DHT22;6742;48.036;15.780;2022-07-17T05:22:24;17.90;99.90
13346;DHT22;6742;48.036;15.780;2022-07-17T05:24:51;18.20;99.90
13346;DHT22;6742;48.036;15.780;2022-07-17T05:27:20;18.50;99.90
13346;DHT22;6742;48.036;15.780;2022-07-17T05:29:47;18.60;99.70
13346;DHT22;6742;48.036;15.780;2022-07-17T05:32:14;18.90;99.40
13346;DHT22;6742;48.036;15.780;2022-07-17T05:34:44;19.20;99.60
13346;DHT22;6742;48.036;15.780;2022-07-17T05:37:11;19.40;99.30
13346;DHT22;6742;48.036;15.780;2022-07-17T05:39:38;19.70;98.70
13346;DHT22;6742;48.036;15.780;2022-07-17T05:42:05;20.00;98.30
13346;DHT22;6742;48.036;15.780;2022-07-17T05:44:33;20.20;98.00
13346;DHT22;6742;48.036;15.780;2022-07-17T05:47:00;20.50;97.10
13346;DHT22;6742;48.036;15.780;2022-07-17T05:49:27;20.70;96.60
13346;DHT22;6742;48.036;15.780;2022-07-17T05:51:54;21.00;96.40
13346;DHT22;6742;48.036;15.780;2022-07-17T05:54:21;21.20;96.30
13346;DHT22;6742;48.036;15.780;2022-07-17T05:56:48;21.30;95.10
13346;DHT22;6742;48.036;15.780;2022-07-17T05:59:15;21.40;95.50
13346;DHT22;6742;48.036;15.780;2022-07-17T06:01:43;21.60;95.80
13346;DHT22;6742;48.036;15.780;2022-07-17T06:04:10;21.80;94.80
13346;DHT22;6742;48.036;15.780;2022-07-17T06:06:37;22.00;94.70
13346;DHT22;6742;48.036;15.780;2022-07-17T06:09:04;22.00;94.00
13346;DHT22;6742;48.036;15.780;2022-07-17T06:11:31;22.10;94.70
13346;DHT22;6742;48.036;15.780;2022-07-17T06:13:58;22.20;94.70
13346;DHT22;6742;48.036;15.780;2022-07-17T06:16:25;22.40;94.70
13346;DHT22;6742;48.036;15.780;2022-07-17T06:18:53;22.50;94.30
13346;DHT22;6742;48.036;15.780;2022-07-17T06:21:20;22.70;93.50
13346;DHT22;6742;48.036;15.780;2022-07-17T06:23:47;22.70;93.50
13346;DHT22;6742;48.036;15.780;2022-07-17T06:26:14;22.90;93.70
13346;DHT22;6742;48.036;15.780;2022-07-17T06:28:41;23.10;93.20
13346;DHT22;6742;48.036;15.780;2022-07-17T06:31:08;23.40;93.10
13346;DHT22;6742;48.036;15.780;2022-07-17T06:33:35;23.70;92.10
13346;DHT22;6742;48.036;15.780;2022-07-17T06:36:04;23.80;91.40
13346;DHT22;6742;48.036;15.780;2022-07-17T06:38:32;23.80;90.80
13346;DHT22;6742;48.036;15.780;2022-07-17T06:41:00;23.90;90.60
13346;DHT22;6742;48.036;15.780;2022-07-17T06:43:27;24.10;91.20
13346;DHT22;6742;48.036;15.780;2022-07-17T06:45:54;24.20;91.10
13346;DHT22;6742;48.036;15.780;2022-07-17T06:48:22;24.10;90.20
13346;DHT22;6742;48.036;15.780;2022-07-17T06:50:49;24.10;90.60
13346;DHT22;6742;48.036;15.780;2022-07-17T06:53:19;24.20;90.90
13346;DHT22;6742;48.036;15.780;2022-07-17T06:55:46;24.20;90.70
13346;DHT22;6742;48.036;15.780;2022-07-17T06:58:13;24.40;91.60
13346;DHT22;6742;48.036;15.780;2022-07-17T07:00:40;24.70;91.10
13346;DHT22;6742;48.036;15.780;2022-07-17T07:03:07;24.90;88.20
13346;DHT22;6742;48.036;15.780;2022-07-17T07:05:34;25.30;87.60
13346;DHT22;6742;48.036;15.780;2022-07-17T07:08:01;25.40;87.30
13346;DHT22;6742;48.036;15.780;2022-07-17T07:10:30;25.60;80.70
13346;DHT22;6742;48.036;15.780;2022-07-17T07:12:57;25.70;84.10
13346;DHT22;6742;48.036;15.780;2022-07-17T07:15:23;25.90;83.40
13346;DHT22;6742;48.036;15.780;2022-07-17T07:17:50;26.10;79.50
13346;DHT22;6742;48.036;15.780;2022-07-17T07:20:18;26.20;79.30
13346;DHT22;6742;48.036;15.780;2022-07-17T07:22:45;26.10;81.20
13346;DHT22;6742;48.036;15.780;2022-07-17T07:25:12;26.00;81.60
13346;DHT22;6742;48.036;15.780;2022-07-17T07:27:40;26.20;82.40
13346;DHT22;6742;48.036;15.780;2022-07-17T07:30:08;26.20;81.40
13346;DHT22;6742;48.036;15.780;2022-07-17T07:32:36;26.40;80.70
13346;DHT22;6742;48.036;15.780;2022-07-17T07:35:04;26.50;81.00
13346;DHT22;6742;48.036;15.780;2022-07-17T07:37:31;26.70;80.70
13346;DHT22;6742;48.036;15.780;2022-07-17T07:39:59;26.80;83.60
13346;DHT22;6742;48.036;15.780;2022-07-17T07:42:26;27.10;78.60
13346;DHT22;6742;48.036;15.780;2022-07-17T07:44:54;27.20;79.90
13346;DHT22;6742;48.036;15.780;2022-07-17T07:47:21;27.00;79.90
13346;DHT22;6742;48.036;15.780;2022-07-17T07:49:48;27.10;77.30
13346;DHT22;6742;48.036;15.780;2022-07-17T07:52:15;27.10;78.20
13346;DHT22;6742;48.036;15.780;2022-07-17T07:54:42;27.10;78.00
13346;DHT22;6742;48.036;15.780;2022-07-17T07:57:12;27.20;75.40
13346;DHT22;6742;48.036;15.780;2022-07-17T07:59:39;27.30;75.50
13346;DHT22;6742;48.036;15.780;2022-07-17T08:02:08;27.40;78.90
13346;DHT22;6742;48.036;15.780;2022-07-17T08:04:35;27.50;76.90
13346;DHT22;6742;48.036;15.780;2022-07-17T08:07:02;27.50;74.30
13346;DHT22;6742;48.036;15.780;2022-07-17T08:09:29;27.20;74.20
13346;DHT22;6742;48.036;15.780;2022-07-17T08:11:56;27.00;74.80
13346;DHT22;6742;48.036;15.780;2022-07-17T08:14:22;27.00;74.70
13346;DHT22;6742;48.036;15.780;2022-07-17T08:16:49;26.90;72.80
13346;DHT22;6742;48.036;15.780;2022-07-17T08:19:18;26.70;73.00
13346;DHT22;6742;48.036;15.780;2022-07-17T08:21:45;26.80;74.10
13346;DHT22;6742;48.036;15.780;2022-07-17T08:24:12;27.00;79.50
13346;DHT22;6742;48.036;15.780;2022-07-17T08:26:42;27.20;77.60
13346;DHT22;6742;48.036;15.780;2022-07-17T08:29:09;27.20;76.30
13346;DHT22;6742;48.036;15.780;2022-07-17T08:31:36;27.40;75.90
13346;DHT22;6742;48.036;15.780;2022-07-17T08:34:03;27.60;77.80
13346;DHT22;6742;48.036;15.780;2022-07-17T08:36:31;27.50;72.20
13346;DHT22;6742;48.036;15.780;2022-07-17T08:38:58;27.50;75.00
13346;DHT22;6742;48.036;15.780;2022-07-17T08:41:26;27.80;78.40
13346;DHT22;6742;48.036;15.780;2022-07-17T08:43:54;28.10;75.70
13346;DHT22;6742;48.036;15.780;2022-07-17T08:46:23;28.30;78.30
13346;DHT22;6742;48.036;15.780;2022-07-17T08:48:56;28.40;70.60
13346;DHT22;6742;48.036;15.780;2022-07-17T08:51:24;28.40;77.80
13346;DHT22;6742;48.036;15.780;2022-07-17T08:53:56;28.40;70.90
13346;DHT22;6742;48.036;15.780;2022-07-17T08:56:24;28.50;71.90
13346;DHT22;6742;48.036;15.780;2022-07-17T08:58:51;28.50;71.00
13346;DHT22;6742;48.036;15.780;2022-07-17T09:01:19;28.40;69.50
13346;DHT22;6742;48.036;15.780;2022-07-17T09:03:55;28.10;73.50
13346;DHT22;6742;48.036;15.780;2022-07-17T09:06:23;28.30;75.80
13346;DHT22;6742;48.036;15.780;2022-07-17T09:09:04;28.50;73.30
13346;DHT22;6742;48.036;15.780;2022-07-17T09:11:45;28.80;74.90
13346;DHT22;6742;48.036;15.780;2022-07-17T09:14:13;29.00;77.20
13346;DHT22;6742;48.036;15.780;2022-07-17T09:16:50;29.30;72.90
13346;DHT22;6742;48.036;15.780;2022-07-17T09:19:26;29.30;72.70
13346;DHT22;6742;48.036;15.780;2022-07-17T09:22:04;29.40;72.80
13346;DHT22;6742;48.036;15.780;2022-07-17T09:24:42;29.20;69.20
13346;DHT22;6742;48.036;15.780;2022-07-17T09:27:11;29.20;73.10
13346;DHT22;6742;48.036;15.780;2022-07-17T09:29:51;29.30;71.40
13346;DHT22;6742;48.036;15.780;2022-07-17T09:32:19;29.20;70.60
13346;DHT22;6742;48.036;15.780;2022-07-17T09:34:47;28.90;72.10
13346;DHT22;6742;48.036;15.780;2022-07-17T09:37:15;28.70;66.70
13346;DHT22;6742;48.036;15.780;2022-07-17T09:39:43;28.70;73.40
13346;DHT22;6742;48.036;15.780;2022-07-17T09:42:21;28.70;73.20
13346;DHT22;6742;48.036;15.780;2022-07-17T09:44:55;28.90;71.80
13346;DHT22;6742;48.036;15.780;2022-07-17T09:47:27;29.10;72.20
13346;DHT22;6742;48.036;15.780;2022-07-17T09:49:55;29.20;70.30
13346;DHT22;6742;48.036;15.780;2022-07-17T09:52:24;29.20;70.50
13346;DHT22;6742;48.036;15.780;2022-07-17T09:54:53;29.10;72.10
13346;DHT22;6742;48.036;15.780;2022-07-17T09:57:24;28.90;68.30
13346;DHT22;6742;48.036;15.780;2022-07-17T09:59:53;28.70;74.80
13346;DHT22;6742;48.036;15.780;2022-07-17T10:02:21;28.40;80.40
13346;DHT22;6742;48.036;15.780;2022-07-17T10:04:49;28.30;74.30
13346;DHT22;6742;48.036;15.780;2022-07-17T10:07:16;28.50;73.60
13346;DHT22;6742;48.036;15.780;2022-07-17T10:09:43;28.50;70.00
13346;DHT22;6742;48.036;15.780;2022-07-17T10:12:13;28.20;77.20
13346;DHT22;6742;48.036;15.780;2022-07-17T10:14:40;27.80;72.80
13346;DHT22;6742;48.036;15.780;2022-07-17T10:17:09;27.90;74.30
13346;DHT22;6742;48.036;15.780;2022-07-17T10:22:05;28.40;74.60
13346;DHT22;6742;48.036;15.780;2022-07-17T10:24:32;28.70;72.50
13346;DHT22;6742;48.036;15.780;2022-07-17T10:27:02;29.10;74.10
13346;DHT22;6742;48.036;15.780;2022-07-17T10:29:32;29.10;74.60
13346;DHT22;6742;48.036;15.780;2022-07-17T10:32:01;28.80;67.50
13346;DHT22;6742;48.036;15.780;2022-07-17T10:34:39;28.80;70.80
13346;DHT22;6742;48.036;15.780;2022-07-17T10:37:21;29.00;71.30
13346;DHT22;6742;48.036;15.780;2022-07-17T10:39:57;28.70;72.40
13346;DHT22;6742;48.036;15.780;2022-07-17T10:42:50;28.60;75.00
13346;DHT22;6742;48.036;15.780;2022-07-17T10:45:20;28.70;76.90
13346;DHT22;6742;48.036;15.780;2022-07-17T10:47:53;28.90;76.70
13346;DHT22;6742;48.036;15.780;2022-07-17T10:50:23;28.50;74.30
13346;DHT22;6742;48.036;15.780;2022-07-17T10:53:09;28.40;76.10
13346;DHT22;6742;48.036;15.780;2022-07-17T10:55:37;28.70;76.60
13346;DHT22;6742;48.036;15.780;2022-07-17T10:58:23;29.00;77.20
13346;DHT22;6742;48.036;15.780;2022-07-17T11:01:01;29.10;75.30
13346;DHT22;6742;48.036;15.780;2022-07-17T11:03:29;29.10;71.80
13346;DHT22;6742;48.036;15.780;2022-07-17T11:06:06;28.90;74.30
13346;DHT22;6742;48.036;15.780;2022-07-17T11:08:41;28.60;76.40
13346;DHT22;6742;48.036;15.780;2022-07-17T11:11:08;28.60;76.00
13346;DHT22;6742;48.036;15.780;2022-07-17T11:13:38;28.70;77.20
13346;DHT22;6742;48.036;15.780;2022-07-17T11:16:06;28.70;74.70
13346;DHT22;6742;48.036;15.780;2022-07-17T11:18:36;28.60;75.30
13346;DHT22;6742;48.036;15.780;2022-07-17T11:21:07;28.70;70.60
13346;DHT22;6742;48.036;15.780;2022-07-17T11:23:34;28.70;76.70
13346;DHT22;6742;48.036;15.780;2022-07-17T11:26:03;28.70;77.70
13346;DHT22;6742;48.036;15.780;2022-07-17T11:28:32;28.70;79.70
13346;DHT22;6742;48.036;15.780;2022-07-17T11:31:03;28.70;80.10
13346;DHT22;6742;48.036;15.780;2022-07-17T11:33:32;28.60;74.20
13346;DHT22;6742;48.036;15.780;2022-07-17T11:35:59;28.50;74.70
13346;DHT22;6742;48.036;15.780;2022-07-17T11:38:27;28.60;78.70
13346;DHT22;6742;48.036;15.780;2022-07-17T11:40:58;28.70;73.90
13346;DHT22;6742;48.036;15.780;2022-07-17T11:43:25;28.70;73.90
13346;DHT22;6742;48.036;15.780;2022-07-17T11:45:52;28.60;72.70
13346;DHT22;6742;48.036;15.780;2022-07-17T11:48:20;28.70;73.80
13346;DHT22;6742;48.036;15.780;2022-07-17T11:50:57;28.60;75.90
13346;DHT22;6742;48.036;15.780;2022-07-17T11:53:31;28.40;70.10
13346;DHT22;6742;48.036;15.780;2022-07-17T11:55:59;28.10;70.50
13346;DHT22;6742;48.036;15.780;2022-07-17T11:58:26;27.90;70.30
13346;DHT22;6742;48.036;15.780;2022-07-17T12:01:02;27.80;71.40
13346;DHT22;6742;48.036;15.780;2022-07-17T12:03:29;27.80;73.80
13346;DHT22;6742;48.036;15.780;2022-07-17T12:05:58;27.90;74.20
13346;DHT22;6742;48.036;15.780;2022-07-17T12:08:25;28.10;72.40
13346;DHT22;6742;48.036;15.780;2022-07-17T12:11:07;28.20;69.80
13346;DHT22;6742;48.036;15.780;2022-07-17T12:13:42;28.10;69.60
13346;DHT22;6742;48.036;15.780;2022-07-17T12:16:21;28.20;71.20
13346;DHT22;6742;48.036;15.780;2022-07-17T12:19:07;28.20;73.50
13346;DHT22;6742;48.036;15.780;2022-07-17T12:21:50;28.30;71.30
13346;DHT22;6742;48.036;15.780;2022-07-17T12:24:24;28.50;72.50
13346;DHT22;6742;48.036;15.780;2022-07-17T12:26:53;28.10;69.20
13346;DHT22;6742;48.036;15.780;2022-07-17T12:29:20;28.40;70.10
13346;DHT22;6742;48.036;15.780;2022-07-17T12:31:48;28.40;71.90
13346;DHT22;6742;48.036;15.780;2022-07-17T12:34:15;28.30;70.40
13346;DHT22;6742;48.036;15.780;2022-07-17T12:36:42;28.30;71.50
13346;DHT22;6742;48.036;15.780;2022-07-17T12:39:13;28.40;69.70
13346;DHT22;6742;48.036;15.780;2022-07-17T12:41:40;28.50;67.50
13346;DHT22;6742;48.036;15.780;2022-07-17T12:44:07;28.30;69.30
13346;DHT22;6742;48.036;15.780;2022-07-17T12:46:34;28.20;69.90
13346;DHT22;6742;48.036;15.780;2022-07-17T12:49:01;28.10;67.60
13346;DHT22;6742;48.036;15.780;2022-07-17T12:51:29;28.10;69.80
13346;DHT22;6742;48.036;15.780;2022-07-17T12:53:57;28.10;71.20
13346;DHT22;6742;48.036;15.780;2022-07-17T12:56:27;28.00;69.00
13346;DHT22;6742;48.036;15.780;2022-07-17T12:58:54;27.60;68.80
13346;DHT22;6742;48.036;15.780;2022-07-17T13:01:22;27.30;71.30
13346;DHT22;6742;48.036;15.780;2022-07-17T13:03:49;27.10;71.90
13346;DHT22;6742;48.036;15.780;2022-07-17T13:06:16;27.10;74.10
13346;DHT22;6742;48.036;15.780;2022-07-17T13:08:43;27.10;75.50
13346;DHT22;6742;48.036;15.780;2022-07-17T13:11:10;26.90;72.10
13346;DHT22;6742;48.036;15.780;2022-07-17T13:13:38;27.00;69.30
13346;DHT22;6742;48.036;15.780;2022-07-17T13:16:05;27.00;68.90
13346;DHT22;6742;48.036;15.780;2022-07-17T13:18:32;26.80;68.50
13346;DHT22;6742;48.036;15.780;2022-07-17T13:21:03;26.90;69.80
13346;DHT22;6742;48.036;15.780;2022-07-17T13:23:32;27.00;72.10
13346;DHT22;6742;48.036;15.780;2022-07-17T13:26:02;26.90;73.00
13346;DHT22;6742;48.036;15.780;2022-07-17T13:28:29;27.00;72.70
13346;DHT22;6742;48.036;15.780;2022-07-17T13:30:58;27.00;68.00
13346;DHT22;6742;48.036;15.780;2022-07-17T13:33:26;27.00;69.20
13346;DHT22;6742;48.036;15.780;2022-07-17T13:35:54;26.90;70.20
13346;DHT22;6742;48.036;15.780;2022-07-17T13:38:24;26.70;68.50
13346;DHT22;6742;48.036;15.780;2022-07-17T13:40:54;26.70;68.50
13346;DHT22;6742;48.036;15.780;2022-07-17T13:43:22;26.40;70.80
13346;DHT22;6742;48.036;15.780;2022-07-17T13:45:49;26.40;69.60
13346;DHT22;6742;48.036;15.780;2022-07-17T13:48:17;26.30;69.30
13346;DHT22;6742;48.036;15.780;2022-07-17T13:50:44;26.30;70.00
13346;DHT22;6742;48.036;15.780;2022-07-17T13:53:11;26.30;72.80
13346;DHT22;6742;48.036;15.780;2022-07-17T13:55:38;26.40;70.30
13346;DHT22;6742;48.036;15.780;2022-07-17T13:58:05;26.30;70.10
13346;DHT22;6742;48.036;15.780;2022-07-17T14:00:33;26.20;70.40
13346;DHT22;6742;48.036;15.780;2022-07-17T14:03:00;26.20;72.30
13346;DHT22;6742;48.036;15.780;2022-07-17T14:05:28;26.20;71.30
13346;DHT22;6742;48.036;15.780;2022-07-17T14:07:55;26.20;70.10
13346;DHT22;6742;48.036;15.780;2022-07-17T14:10:22;26.10;68.60
13346;DHT22;6742;48.036;15.780;2022-07-17T14:12:49;26.00;65.30
13346;DHT22;6742;48.036;15.780;2022-07-17T14:15:17;25.90;67.40
13346;DHT22;6742;48.036;15.780;2022-07-17T14:17:44;26.00;67.40
13346;DHT22;6742;48.036;15.780;2022-07-17T14:20:11;25.90;65.50
13346;DHT22;6742;48.036;15.780;2022-07-17T14:22:40;25.90;68.50
13346;DHT22;6742;48.036;15.780;2022-07-17T14:25:07;25.80;67.80
13346;DHT22;6742;48.036;15.780;2022-07-17T14:27:34;25.60;69.40
13346;DHT22;6742;48.036;15.780;2022-07-17T14:30:03;25.60;71.80
13346;DHT22;6742;48.036;15.780;2022-07-17T14:32:30;25.60;73.10
13346;DHT22;6742;48.036;15.780;2022-07-17T14:34:57;25.60;70.70
13346;DHT22;6742;48.036;15.780;2022-07-17T14:37:24;25.50;68.70
13346;DHT22;6742;48.036;15.780;2022-07-17T14:39:52;25.40;66.60
13346;DHT22;6742;48.036;15.780;2022-07-17T14:42:20;25.30;67.50
13346;DHT22;6742;48.036;15.780;2022-07-17T14:44:47;25.20;66.70
13346;DHT22;6742;48.036;15.780;2022-07-17T14:47:14;25.10;65.90
13346;DHT22;6742;48.036;15.780;2022-07-17T14:49:45;25.10;69.20
13346;DHT22;6742;48.036;15.780;2022-07-17T14:52:13;25.20;72.80
13346;DHT22;6742;48.036;15.780;2022-07-17T14:54:40;25.10;73.20
13346;DHT22;6742;48.036;15.780;2022-07-17T14:57:09;25.10;77.70
13346;DHT22;6742;48.036;15.780;2022-07-17T14:59:36;25.10;71.30
13346;DHT22;6742;48.036;15.780;2022-07-17T15:02:03;25.00;74.00
13346;DHT22;6742;48.036;15.780;2022-07-17T15:04:30;25.00;76.30
13346;DHT22;6742;48.036;15.780;2022-07-17T15:06:57;25.00;79.30
13346;DHT22;6742;48.036;15.780;2022-07-17T15:09:24;25.00;77.70
13346;DHT22;6742;48.036;15.780;2022-07-17T15:11:51;24.90;76.50
13346;DHT22;6742;48.036;15.780;2022-07-17T15:14:19;24.90;75.50
13346;DHT22;6742;48.036;15.780;2022-07-17T15:16:46;24.80;77.90
13346;DHT22;6742;48.036;15.780;2022-07-17T15:19:13;24.80;77.90
13346;DHT22;6742;48.036;15.780;2022-07-17T15:21:40;24.90;79.60
13346;DHT22;6742;48.036;15.780;2022-07-17T15:24:07;24.90;79.70
13346;DHT22;6742;48.036;15.780;2022-07-17T15:26:34;24.90;76.80
13346;DHT22;6742;48.036;15.780;2022-07-17T15:29:00;24.80;78.60
13346;DHT22;6742;48.036;15.780;2022-07-17T15:31:29;24.80;78.60
13346;DHT22;6742;48.036;15.780;2022-07-17T15:33:56;24.80;78.90
13346;DHT22;6742;48.036;15.780;2022-07-17T15:36:23;24.70;80.10
13346;DHT22;6742;48.036;15.780;2022-07-17T15:38:54;24.70;79.60
13346;DHT22;6742;48.036;15.780;2022-07-17T15:41:22;24.60;79.70
13346;DHT22;6742;48.036;15.780;2022-07-17T15:43:49;24.60;80.80
13346;DHT22;6742;48.036;15.780;2022-07-17T15:46:16;24.60;81.20